Airfield :
LOGIN :

Register | Disclaimer

   EN    FR    IT 

 










Legend :    VFR   Marginal VFR   IFR   Intensive IFR   Very Intensive IFR
Visi :
Ceiling :
>= 8 km
>= 3000ft
5 to 8 km
1000 to 3000 ft
1500m to 5 km
500 to 1000 ft
800 to 1500m
200 to 500 ft
< 800m
< 200 ft
Symbols :   Thunderstorms  Fog  Heavy snow  Heavy precipitations  Wind > 20 kt
SIGMETs :     Misc.  Thunderstorms  Icing  Turbulence  Mountain Waves  Volcanic Ashes







- Airport Elevation : 13 ft
- IATA code : OST


EBOS - Oostend bruges Int.

CURRENT METAR :
  • 240120Z 21011KT 6000 -DZ SCT003 BKN006 11/10 Q1017 TEMPO SCT006 BKN012

EXPIRED METARs :
  • 240050Z 22012KT 9999 SCT003 BKN006 11/10 Q1017 TEMPO SCT006 BKN012
  • 240020Z 22013KT 9999 SCT006 BKN008 BKN019 11/10 Q1017 TEMPO 20017G27KT
  • 232350Z 23014KT 9999 SCT006 BKN008 BKN019 11/10 Q1017 TEMPO 20017G27KT
  • 232320Z 23014KT 9999 SCT007 BKN010 11/09 Q1017 TEMPO 20017G27KT

TAF TAF EBOS
Valid from the 24 at 00:00 until the 25 at 06:00 UTC


232301Z 2400/2506 22013KT 9999 SCT012 BKN020
TEMPO 2400/2406 BKN008
BECMG 2404/2406 21017G28KT
BECMG 2407/2409 20020G38KT
TEMPO 2411/2415 20025G48KT
BECMG 2415/2417 24018G30KT
BECMG 2417/2419 23013KT
TEMPO 2417/2422 4000 RA
No reported NOTAMs for that airfield.



MET'MAP, your aeronautical weather chart ! - Copyright ORBIFLY December 2007 - Disclaimer

ORBIFLY MET'MAP TEAM :

Programming & Development : Alexandra Zaïnal
Concept & Development : Baudouin d'Aumeries
Co-Development & Prog : Marc-Olivier Méhu
Technical & hardware support : Manuel Goepfert

Contact : metmap@orbifly.com




SOURCES & CREDITS :

   NOAA